Gumbo, Missouri
Current Conditions -  °F | °C
As of 8:54 AM on Monday 24 Nov 2014 (Local Time) from KSUS Reporting Station
Overcast Overcast  
Wind Chill: 29°   Ceiling: 2900
Heat Index: 37°   Visibility: 10mi
Dew Point: 29°   Wind: 13mph
Humidity: 73%   Direction: 260°W
Pressure: 29.62"   Gusts: 23mph
Location:  38.6405°N, 90.6464°W
Report Text: KSUS 241454Z 26011G20KT 10SM OVC029 03/M02 A2962 RMK AO2 PK WND 28031/1415 SLP033 T00281017 53052
Loading
Personal Weather Stations






























Interactive Weather Map New forecast layout! Learn more

10-Day Weather Forecast

Advertisements
Track Severe Weather on mobile